Alsace — PB4786 — position and weather

sailwx.info

Track history (hours):
 
Tides and Currents Weather Stations Pressure Air Temp Water Temp Dewpoint Dewpoint Depression Visibility Wind Speed Wind Dir Waves Ship Positions

Alsace

Last reported at 2014-Sep-16 01:21 UTC. Time now 2014-Sep-17 05:35 UTC.
Position N 51°11' E 006°47'.

Length 178 m.

Type: Ship. MMSI: 244660556.

Date/timePositionNaut miles runAvg speedWind from/ knotsBaromVisibWave heightAir tempDewpointWater temp
2014-Sep-16 01:21N 51°11' E 006°47'3 4.2
2014-Sep-16 00:33N 51°13' E 006°43'36 3.2
2014-Sep-15 13:28N 51°46' E 006°20'20 1.3
2014-Sep-14 21:25N 51°52' E 005°49'7 6.2
2014-Sep-14 20:19N 51°54' E 005°38'5 6.1
2014-Sep-14 19:34N 51°53' E 005°31'6 5.7
2014-Sep-14 18:34N 51°50' E 005°23'5 4.9
2014-Sep-14 17:33N 51°49' E 005°16'6 6.3
2014-Sep-14 16:33N 51°50' E 005°05'7 6.9
2014-Sep-14 15:33N 51°49' E 004°54'7 7.2
2014-Sep-14 14:33N 51°45' E 004°44'8 8.4
2014-Sep-14 13:33N 51°42' E 004°32'6 5.2
2014-Sep-14 12:27N 51°41' E 004°23'7 8.3
2014-Sep-14 11:34N 51°37' E 004°12'8 7.7
2014-Sep-14 10:33N 51°30' E 004°13'5 5.0
2014-Sep-14 09:33N 51°25' E 004°14'6 5.1
2014-Sep-14 08:21N 51°20' E 004°19'0 0.2
2014-Sep-14 07:26N 51°19' E 004°19'0 0.0
2014-Sep-14 06:33N 51°19' E 004°19'0 0.5
2014-Sep-14 05:32N 51°19' E 004°19'0 0.1
2014-Sep-14 04:30N 51°19' E 004°19'0 0.0
2014-Sep-14 03:34N 51°19' E 004°19'0 0.0
2014-Sep-14 02:33N 51°19' E 004°19'0 0.0
2014-Sep-14 01:24N 51°19' E 004°19'2 0.5
2014-Sep-13 21:33N 51°18' E 004°18'2 1.2
2014-Sep-13 20:05N 51°17' E 004°15'0 0.0
2014-Sep-13 19:33N 51°17' E 004°15'0 0.1
2014-Sep-13 18:30N 51°17' E 004°16'0 0.0
2014-Sep-13 17:33N 51°17' E 004°16'0 0.0
2014-Sep-13 16:33N 51°17' E 004°16'0 0.0
2014-Sep-13 15:29N 51°17' E 004°16'0 0.1
2014-Sep-13 14:33N 51°17' E 004°15'0 0.0
2014-Sep-13 13:32N 51°17' E 004°15'0 0.0
2014-Sep-13 12:33N 51°17' E 004°15'0 0.0
2014-Sep-13 11:33N 51°17' E 004°15'0 0.1
2014-Sep-13 10:31N 51°17' E 004°15'4 3.8
2014-Sep-13 09:33N 51°21' E 004°16'0 0.3
2014-Sep-13 08:33N 51°21' E 004°16'0 0.3
2014-Sep-13 07:33N 51°21' E 004°16'1 0.7
2014-Sep-13 06:33N 51°20' E 004°17'1 1.4
2014-Sep-13 05:33N 51°19' E 004°16'1 1.2
2014-Sep-13 04:33N 51°18' E 004°16'0 0.0
2014-Sep-13 03:29N 51°18' E 004°16'3 3.0
2014-Sep-13 02:33N 51°17' E 004°20'1 0.6
2014-Sep-13 01:33N 51°17' E 004°20'9 7.5
2014-Sep-13 00:19N 51°26' E 004°14'4 4.7
2014-Sep-12 23:33N 51°29' E 004°13'8 7.8
2014-Sep-12 22:31N 51°37' E 004°12'11 5.7
2014-Sep-12 20:33N 51°42' E 004°29'8 8.1
2014-Sep-12 19:33N 51°44' E 004°41'7 7.2
2014-Sep-12 18:33N 51°48' E 004°51'6 6.4
2014-Sep-12 17:33N 51°49' E 005°01'9 9.1
2014-Sep-12 16:33N 51°49' E 005°16'8 7.8
2014-Sep-12 15:33N 51°53' E 005°27'10 9.9
2014-Sep-12 14:31N 51°53' E 005°43'55 3.0
2014-Sep-11 20:32N 51°15' E 006°45'5 5.1
2014-Sep-11 19:33N 51°10' E 006°48'126 5.9
2014-Sep-10 22:15N 49°22' E 008°30'6 7.5
2014-Sep-10 21:28N 49°17' E 008°27'9 9.7
2014-Sep-10 20:33N 49°08' E 008°22'1010.4
2014-Sep-10 19:33N 48°59' E 008°16'11 7.8
2014-Sep-10 18:11N 48°50' E 008°07'6 6.5
2014-Sep-10 17:17N 48°46' E 008°01'6 7.0
2014-Sep-10 16:29N 48°41' E 007°55'64 2.9
2014-Sep-09 18:11N 47°39' E 007°31'1 0.9
2014-Sep-09 17:33N 47°39' E 007°32'5 4.6
2014-Sep-09 16:33N 47°35' E 007°35'0 0.1
2014-Sep-09 15:33N 47°35' E 007°35'0 0.0
2014-Sep-09 14:32N 47°35' E 007°35'0 0.0
2014-Sep-09 13:29N 47°35' E 007°35'0 0.0
2014-Sep-09 12:32N 47°35' E 007°35'0 0.0
2014-Sep-09 11:16N 47°35' E 007°35'0 0.0
2014-Sep-09 09:32N 47°35' E 007°35'0 0.1
2014-Sep-09 08:33N 47°35' E 007°35'1 1.3
2014-Sep-09 07:32N 47°36' E 007°35'0 0.0
2014-Sep-09 06:32N 47°36' E 007°35'0 0.0
2014-Sep-09 05:33N 47°36' E 007°35'0 0.0
2014-Sep-09 04:33N 47°36' E 007°35'0 0.0
2014-Sep-09 03:33N 47°36' E 007°35'0 0.0
2014-Sep-09 02:33N 47°36' E 007°35'0 0.0
2014-Sep-09 01:33N 47°36' E 007°35'66 3.7
2014-Sep-08 07:31N 48°41' E 007°55'6 4.8
2014-Sep-08 06:20N 48°46' E 008°00'6 6.4
2014-Sep-08 05:25N 48°50' E 008°07'3 3.3
2014-Sep-08 04:33N 48°52' E 008°08'5 4.8
2014-Sep-08 03:32N 48°57' E 008°11'5 4.6
2014-Sep-08 02:33N 48°59' E 008°17'5 5.1
2014-Sep-08 01:33N 49°04' E 008°19'5 5.1
2014-Sep-08 00:33N 49°09' E 008°22'5 5.0
2014-Sep-07 23:33N 49°14' E 008°23'9 4.5
2014-Sep-07 21:32N 49°22' E 008°30'127 4.0
2014-Sep-06 13:26N 51°11' E 006°47'3 3.9
2014-Sep-06 12:33N 51°14' E 006°44'2 2.0
2014-Sep-06 11:28N 51°16' E 006°43'34 3.8
2014-Sep-06 02:29N 51°47' E 006°19'  
Track history (hours):
 
Tides and Currents Weather Stations Pressure Air Temp Water Temp Dewpoint Dewpoint Depression Visibility Wind Speed Wind Dir Waves Ship Positions

Alsace

Last reported at 2014-Sep-16 01:21 UTC. Time now 2014-Sep-17 05:35 UTC.
Position N 51°11' E 006°47'.

Length 178 m.

Type: Ship. MMSI: 244660556.

Date/timePositionNaut miles runAvg speedWind from/ knotsBaromVisibWave heightAir tempDewpointWater temp
2014-Sep-16 01:21N 51°11' E 006°47'3 4.2
2014-Sep-16 00:33N 51°13' E 006°43'36 3.2
2014-Sep-15 13:28N 51°46' E 006°20'20 1.3
2014-Sep-14 21:25N 51°52' E 005°49'7 6.2
2014-Sep-14 20:19N 51°54' E 005°38'5 6.1
2014-Sep-14 19:34N 51°53' E 005°31'6 5.7
2014-Sep-14 18:34N 51°50' E 005°23'5 4.9
2014-Sep-14 17:33N 51°49' E 005°16'6 6.3
2014-Sep-14 16:33N 51°50' E 005°05'7 6.9
2014-Sep-14 15:33N 51°49' E 004°54'7 7.2
2014-Sep-14 14:33N 51°45' E 004°44'8 8.4
2014-Sep-14 13:33N 51°42' E 004°32'6 5.2
2014-Sep-14 12:27N 51°41' E 004°23'7 8.3
2014-Sep-14 11:34N 51°37' E 004°12'8 7.7
2014-Sep-14 10:33N 51°30' E 004°13'5 5.0
2014-Sep-14 09:33N 51°25' E 004°14'6 5.1
2014-Sep-14 08:21N 51°20' E 004°19'0 0.2
2014-Sep-14 07:26N 51°19' E 004°19'0 0.0
2014-Sep-14 06:33N 51°19' E 004°19'0 0.5
2014-Sep-14 05:32N 51°19' E 004°19'0 0.1
2014-Sep-14 04:30N 51°19' E 004°19'0 0.0
2014-Sep-14 03:34N 51°19' E 004°19'0 0.0
2014-Sep-14 02:33N 51°19' E 004°19'0 0.0
2014-Sep-14 01:24N 51°19' E 004°19'2 0.5
2014-Sep-13 21:33N 51°18' E 004°18'2 1.2
2014-Sep-13 20:05N 51°17' E 004°15'0 0.0
2014-Sep-13 19:33N 51°17' E 004°15'0 0.1
2014-Sep-13 18:30N 51°17' E 004°16'0 0.0
2014-Sep-13 17:33N 51°17' E 004°16'0 0.0
2014-Sep-13 16:33N 51°17' E 004°16'0 0.0
2014-Sep-13 15:29N 51°17' E 004°16'0 0.1
2014-Sep-13 14:33N 51°17' E 004°15'0 0.0
2014-Sep-13 13:32N 51°17' E 004°15'0 0.0
2014-Sep-13 12:33N 51°17' E 004°15'0 0.0
2014-Sep-13 11:33N 51°17' E 004°15'0 0.1
2014-Sep-13 10:31N 51°17' E 004°15'4 3.8
2014-Sep-13 09:33N 51°21' E 004°16'0 0.3
2014-Sep-13 08:33N 51°21' E 004°16'0 0.3
2014-Sep-13 07:33N 51°21' E 004°16'1 0.7
2014-Sep-13 06:33N 51°20' E 004°17'1 1.4
2014-Sep-13 05:33N 51°19' E 004°16'1 1.2
2014-Sep-13 04:33N 51°18' E 004°16'0 0.0
2014-Sep-13 03:29N 51°18' E 004°16'3 3.0
2014-Sep-13 02:33N 51°17' E 004°20'1 0.6
2014-Sep-13 01:33N 51°17' E 004°20'9 7.5
2014-Sep-13 00:19N 51°26' E 004°14'4 4.7
2014-Sep-12 23:33N 51°29' E 004°13'8 7.8
2014-Sep-12 22:31N 51°37' E 004°12'11 5.7
2014-Sep-12 20:33N 51°42' E 004°29'8 8.1
2014-Sep-12 19:33N 51°44' E 004°41'7 7.2
2014-Sep-12 18:33N 51°48' E 004°51'6 6.4
2014-Sep-12 17:33N 51°49' E 005°01'9 9.1
2014-Sep-12 16:33N 51°49' E 005°16'8 7.8
2014-Sep-12 15:33N 51°53' E 005°27'10 9.9
2014-Sep-12 14:31N 51°53' E 005°43'55 3.0
2014-Sep-11 20:32N 51°15' E 006°45'5 5.1
2014-Sep-11 19:33N 51°10' E 006°48'126 5.9
2014-Sep-10 22:15N 49°22' E 008°30'6 7.5
2014-Sep-10 21:28N 49°17' E 008°27'9 9.7
2014-Sep-10 20:33N 49°08' E 008°22'1010.4
2014-Sep-10 19:33N 48°59' E 008°16'11 7.8
2014-Sep-10 18:11N 48°50' E 008°07'6 6.5
2014-Sep-10 17:17N 48°46' E 008°01'6 7.0
2014-Sep-10 16:29N 48°41' E 007°55'64 2.9
2014-Sep-09 18:11N 47°39' E 007°31'1 0.9
2014-Sep-09 17:33N 47°39' E 007°32'5 4.6
2014-Sep-09 16:33N 47°35' E 007°35'0 0.1
2014-Sep-09 15:33N 47°35' E 007°35'0 0.0
2014-Sep-09 14:32N 47°35' E 007°35'0 0.0
2014-Sep-09 13:29N 47°35' E 007°35'0 0.0
2014-Sep-09 12:32N 47°35' E 007°35'0 0.0
2014-Sep-09 11:16N 47°35' E 007°35'0 0.0
2014-Sep-09 09:32N 47°35' E 007°35'0 0.1
2014-Sep-09 08:33N 47°35' E 007°35'1 1.3
2014-Sep-09 07:32N 47°36' E 007°35'0 0.0
2014-Sep-09 06:32N 47°36' E 007°35'0 0.0
2014-Sep-09 05:33N 47°36' E 007°35'0 0.0
2014-Sep-09 04:33N 47°36' E 007°35'0 0.0
2014-Sep-09 03:33N 47°36' E 007°35'0 0.0
2014-Sep-09 02:33N 47°36' E 007°35'0 0.0
2014-Sep-09 01:33N 47°36' E 007°35'66 3.7
2014-Sep-08 07:31N 48°41' E 007°55'6 4.8
2014-Sep-08 06:20N 48°46' E 008°00'6 6.4
2014-Sep-08 05:25N 48°50' E 008°07'3 3.3
2014-Sep-08 04:33N 48°52' E 008°08'5 4.8
2014-Sep-08 03:32N 48°57' E 008°11'5 4.6
2014-Sep-08 02:33N 48°59' E 008°17'5 5.1
2014-Sep-08 01:33N 49°04' E 008°19'5 5.1
2014-Sep-08 00:33N 49°09' E 008°22'5 5.0
2014-Sep-07 23:33N 49°14' E 008°23'9 4.5
2014-Sep-07 21:32N 49°22' E 008°30'127 4.0
2014-Sep-06 13:26N 51°11' E 006°47'3 3.9
2014-Sep-06 12:33N 51°14' E 006°44'2 2.0
2014-Sep-06 11:28N 51°16' E 006°43'34 3.8
2014-Sep-06 02:29N 51°47' E 006°19'  

Dump ship's entire track history